TimePDT,TemperatureF,Dew PointF,Humidity,Sea Level PressureIn,VisibilityMPH,Wind Direction,Wind SpeedMPH,Gust SpeedMPH,PrecipitationIn,Events,Conditions,WindDirDegrees,DateUTC
12:00 AM,33.8,28.4,81,29.78,4.0,South,9.2,-,0.00,Snow,Light Snow,180,2011-10-06 07:00:00
12:15 AM,33.8,28.4,81,29.78,6.0,South,6.9,-,0.00,,Haze,190,2011-10-06 07:15:00
12:53 AM,32.0,26.1,79,29.75,10.0,South,6.9,-,0.00,,Scattered Clouds,180,2011-10-06 07:53:00
1:53 AM,33.1,27.0,78,29.75,5.0,SSW,9.2,-,N/A,,Haze,200,2011-10-06 08:53:00
1:55 AM,33.8,26.6,75,29.78,3.0,SSW,10.4,-,0.00,Snow,Light Snow,200,2011-10-06 08:55:00
1:58 AM,33.8,28.4,81,29.78,1.8,South,8.1,-,0.00,Snow,Light Snow,190,2011-10-06 08:58:00
2:07 AM,32.0,26.6,80,29.78,3.0,SSW,3.5,-,0.00,Snow,Light Snow,210,2011-10-06 09:07:00
2:16 AM,33.8,26.6,75,29.78,9.0,South,4.6,-,0.00,,Overcast,180,2011-10-06 09:16:00
2:33 AM,33.8,26.6,75,29.79,2.5,SSW,4.6,-,0.00,Snow,Light Snow,200,2011-10-06 09:33:00
2:53 AM,33.1,28.0,82,29.75,6.0,South,6.9,-,0.00,Snow,Light Snow,190,2011-10-06 09:53:00
3:31 AM,33.8,26.6,75,29.78,9.0,South,13.8,18.4,0.00,,Mostly Cloudy,190,2011-10-06 10:31:00
3:44 AM,32.0,26.6,80,29.78,10.0,SSW,9.2,-,0.00,,Overcast,200,2011-10-06 10:44:00
3:53 AM,32.0,25.0,75,29.75,10.0,SSW,10.4,-,0.00,,Overcast,210,2011-10-06 10:53:00
4:53 AM,30.9,25.0,79,29.76,10.0,South,5.8,-,N/A,,Clear,180,2011-10-06 11:53:00
5:17 AM,32.0,24.8,75,29.80,10.0,SSE,5.8,-,N/A,,Mostly Cloudy,160,2011-10-06 12:17:00
5:53 AM,33.1,24.1,70,29.78,10.0,South,11.5,-,N/A,,Overcast,170,2011-10-06 12:53:00
6:53 AM,33.1,25.0,72,29.80,10.0,SSE,5.8,-,N/A,,Overcast,150,2011-10-06 13:53:00
7:10 AM,33.8,24.8,70,29.81,10.0,South,9.2,-,N/A,,Overcast,180,2011-10-06 14:10:00
7:53 AM,33.8,26.6,75,29.83,10.0,South,4.6,-,N/A,,Mostly Cloudy,190,2011-10-06 14:53:00
8:53 AM,34.0,26.1,73,29.83,10.0,South,10.4,-,N/A,,Overcast,170,2011-10-06 15:53:00
9:53 AM,37.0,26.1,65,29.83,10.0,SSW,8.1,-,N/A,,Overcast,210,2011-10-06 16:53:00
10:53 AM,37.4,26.6,65,29.88,10.0,South,9.2,-,N/A,,Overcast,180,2011-10-06 17:53:00
11:22 AM,37.4,28.4,70,29.88,3.0,SSE,5.8,-,0.00,Snow,Light Snow,160,2011-10-06 18:22:00
11:43 AM,37.4,28.4,70,29.89,2.5,SSW,5.8,-,0.00,Snow,Light Snow,210,2011-10-06 18:43:00
11:53 AM,37.0,28.9,73,29.87,1.8,South,4.6,-,0.00,Snow,Light Snow,190,2011-10-06 18:53:00
12:05 PM,37.4,28.4,70,29.90,2.5,Calm,Calm,-,N/A,Snow,Light Snow,0,2011-10-06 19:05:00
12:13 PM,37.4,28.4,70,29.90,4.0,Calm,Calm,-,0.00,Snow,Light Snow,0,2011-10-06 19:13:00
12:21 PM,39.2,30.2,70,29.90,6.0,Calm,Calm,-,0.00,,Unknown,0,2011-10-06 19:21:00
12:53 PM,37.9,32.0,79,29.88,8.0,Calm,Calm,-,0.00,Rain,Light Rain,0,2011-10-06 19:53:00
1:01 PM,37.4,30.2,75,29.90,2.5,Calm,Calm,-,0.01,Snow,Light Snow,0,2011-10-06 20:01:00
1:09 PM,39.2,30.2,70,29.90,5.0,Variable,3.5,-,0.01,,Unknown,0,2011-10-06 20:09:00
1:31 PM,37.4,30.2,75,29.90,2.5,North,8.1,-,0.01,Snow,Light Snow,10,2011-10-06 20:31:00
1:41 PM,35.6,30.2,81,29.91,3.0,NNE,6.9,-,0.01,Snow,Light Snow,20,2011-10-06 20:41:00
1:46 PM,35.6,30.2,81,29.91,2.5,NNE,10.4,-,0.01,Snow,Light Snow,30,2011-10-06 20:46:00
1:53 PM,35.6,32.0,87,29.92,2.0,NNE,8.1,-,N/A,Snow,Light Snow,30,2011-10-06 20:53:00
1:57 PM,35.6,32.0,87,29.92,1.2,NNE,8.1,-,0.00,Snow,Light Snow,30,2011-10-06 20:57:00
2:07 PM,35.6,30.2,81,29.92,0.5,NE,6.9,-,0.01,Fog-Snow,Snow,40,2011-10-06 21:07:00
2:17 PM,33.8,30.2,87,29.92,0.2,ENE,4.6,-,0.03,Fog-Snow,Heavy Snow,70,2011-10-06 21:17:00
2:24 PM,35.6,30.2,81,29.92,0.2,Calm,Calm,-,0.03,Fog-Snow,Snow,0,2011-10-06 21:24:00
2:33 PM,35.6,30.2,81,29.93,1.2,Calm,Calm,-,0.04,Snow,Light Snow,0,2011-10-06 21:33:00
2:37 PM,35.6,30.2,81,29.93,3.0,Calm,Calm,-,0.04,Snow,Light Snow,0,2011-10-06 21:37:00
2:45 PM,35.6,30.2,81,29.93,9.0,Calm,Calm,-,0.04,,Overcast,0,2011-10-06 21:45:00
2:53 PM,36.0,30.9,82,29.91,10.0,Calm,Calm,-,0.04,,Overcast,0,2011-10-06 21:53:00
3:11 PM,37.4,30.2,75,29.94,2.5,NE,5.8,-,0.00,Snow,Light Snow,40,2011-10-06 22:11:00
3:23 PM,35.6,30.2,81,29.95,1.5,North,5.8,-,0.00,Snow,Light Snow,360,2011-10-06 22:23:00
3:25 PM,35.6,30.2,81,29.95,0.8,Variable,4.6,-,0.00,Snow,Light Snow,0,2011-10-06 22:25:00
3:32 PM,35.6,30.2,81,29.95,0.2,Variable,3.5,-,0.01,Fog-Snow,Heavy Snow,0,2011-10-06 22:32:00
3:41 PM,33.8,30.2,87,29.95,0.2,Calm,Calm,-,0.02,Fog-Snow,Snow,0,2011-10-06 22:41:00
3:48 PM,33.8,30.2,87,29.95,1.0,Calm,Calm,-,0.02,Snow,Light Snow,0,2011-10-06 22:48:00
3:53 PM,35.1,30.9,85,29.94,2.0,Calm,Calm,-,0.02,Snow,Light Snow,0,2011-10-06 22:53:00
4:07 PM,35.6,30.2,81,29.96,3.0,Calm,Calm,-,0.00,Snow,Light Snow,0,2011-10-06 23:07:00
4:16 PM,35.6,30.2,81,29.95,9.0,SSE,4.6,-,0.00,,Mostly Cloudy,160,2011-10-06 23:16:00
4:53 PM,37.9,30.9,76,29.93,10.0,South,3.5,-,0.00,,Clear,180,2011-10-06 23:53:00
5:53 PM,36.0,32.0,86,29.96,10.0,Calm,Calm,-,N/A,,Mostly Cloudy,0,2011-10-07 00:53:00
6:30 PM,35.6,32.0,87,30.00,2.5,Calm,Calm,-,0.01,Snow,Light Snow,0,2011-10-07 01:30:00
6:36 PM,35.6,32.0,87,30.00,1.0,Calm,Calm,-,0.05,Snow,Light Snow,0,2011-10-07 01:36:00
6:45 PM,35.6,30.2,81,30.01,0.8,Calm,Calm,-,0.11,Snow,Light Snow,0,2011-10-07 01:45:00
6:53 PM,35.1,30.0,82,30.00,0.8,ESE,3.5,-,0.13,Snow,Light Snow,110,2011-10-07 01:53:00
7:00 PM,33.8,30.2,87,30.02,0.5,Calm,Calm,-,0.01,Fog-Snow,Snow,0,2011-10-07 02:00:00
7:16 PM,33.8,30.2,87,30.01,1.5,SSW,4.6,-,0.03,Snow,Light Snow,210,2011-10-07 02:16:00
7:19 PM,33.8,30.2,87,30.01,2.5,Calm,Calm,-,0.03,Snow,Light Snow,0,2011-10-07 02:19:00
7:22 PM,33.8,30.2,87,30.01,5.0,South,4.6,-,0.03,Snow,Light Snow,190,2011-10-07 02:22:00
7:53 PM,33.1,30.0,89,30.01,10.0,South,3.5,-,0.03,,Mostly Cloudy,180,2011-10-07 02:53:00
8:53 PM,32.0,28.9,88,30.04,10.0,SSW,3.5,-,N/A,,Partly Cloudy,200,2011-10-07 03:53:00
9:36 PM,32.0,28.4,87,30.05,7.0,Calm,Calm,-,N/A,,Scattered Clouds,0,2011-10-07 04:36:00
9:53 PM,30.9,28.0,89,30.05,8.0,Calm,Calm,-,N/A,,Partly Cloudy,0,2011-10-07 04:53:00
10:53 PM,30.9,27.0,85,30.06,10.0,South,3.5,-,N/A,,Partly Cloudy,170,2011-10-07 05:53:00
11:53 PM,30.0,26.1,85,30.07,10.0,SSW,3.5,-,N/A,,Clear,200,2011-10-07 06:53:00